Terminal Aerodrome Forecast
Issued by NWS Cleveland, OH

Home | Current Version | Previous Version | Text Only | Print | Product List | Glossary On
Versions: 1 2 3 4 5 6 7 8 9 10 11 12 13 14
720
FTUS41 KCLE 242335
TAFYNG
TAF
KYNG 242335Z 2500/2524 10010KT 6SM -SHRA OVC015
      TEMPO 2500/2503 5SM -SHRA OVC008
     FM250300 08010KT 5SM -SHRA OVC008
      TEMPO 2503/2506 1 1/2SM -SHRA OVC005
     FM250600 09007KT 2SM -SHRA BR OVC004
     FM251500 35010KT 5SM BR OVC007
     FM252000 35012G18KT P6SM OVC012=

USA.gov is the U.S. government's official web portal to all federal, state and local government web resources and services.